createdAt,value
2019-05-07T00:01:46.759Z,95.30
2019-05-07T00:06:52.797Z,95.50
2019-05-07T00:11:57.217Z,95.60
2019-05-07T00:17:02.246Z,95.50
2019-05-07T00:22:07.662Z,95.30
2019-05-07T00:27:13.126Z,95.60
2019-05-07T00:32:17.669Z,95.40
2019-05-07T00:37:36.642Z,95.20
2019-05-07T00:42:58.652Z,95.10
2019-05-07T00:48:03.042Z,95.40
2019-05-07T00:53:07.426Z,95.10
2019-05-07T00:58:13.262Z,95.80
2019-05-07T01:03:17.784Z,96.20
2019-05-07T01:08:22.717Z,96.40
2019-05-07T01:13:27.295Z,96.80
2019-05-07T01:18:32.419Z,96.50
2019-05-07T01:23:36.914Z,97.00
2019-05-07T01:28:59.625Z,97.10
2019-05-07T01:34:26.375Z,97.20
2019-05-07T01:39:32.641Z,97.30
2019-05-07T01:44:36.948Z,97.10
2019-05-07T01:49:42.212Z,96.70
2019-05-07T01:54:47.521Z,96.80
2019-05-07T01:59:52.741Z,97.10
2019-05-07T02:05:16.287Z,96.90
2019-05-07T02:10:32.252Z,96.60
2019-05-07T02:15:36.650Z,96.80
2019-05-07T02:20:42.644Z,96.70
2019-05-07T02:25:47.159Z,96.60
2019-05-07T02:30:53.487Z,96.60
2019-05-07T02:35:58.003Z,96.50
2019-05-07T02:41:08.417Z,96.60
2019-05-07T02:46:32.133Z,96.90
2019-05-07T02:51:43.407Z,97.00
2019-05-07T02:56:46.497Z,96.40
2019-05-07T03:01:53.449Z,96.50
2019-05-07T03:06:56.999Z,96.40
2019-05-07T03:12:04.013Z,96.50
2019-05-07T03:17:07.753Z,96.90
2019-05-07T03:22:13.906Z,97.40
2019-05-07T03:27:18.811Z,97.50
2019-05-07T03:32:38.069Z,97.60
2019-05-07T03:37:38.385Z,97.60
2019-05-07T03:42:43.955Z,97.50
2019-05-07T03:47:54.176Z,97.40
2019-05-07T03:52:58.753Z,97.40
2019-05-07T03:58:03.364Z,97.30
2019-05-07T04:03:07.921Z,97.20
2019-05-07T04:08:13.170Z,96.90
2019-05-07T04:13:18.076Z,97.00
2019-05-07T04:18:23.755Z,97.00
2019-05-07T04:23:28.463Z,97.40
2019-05-07T04:28:43.560Z,97.60
2019-05-07T04:33:53.150Z,97.70
2019-05-07T04:38:59.166Z,98.10
2019-05-07T04:44:04.002Z,98.10
2019-05-07T04:49:08.506Z,98.20
2019-05-07T04:54:13.360Z,97.80
2019-05-07T04:59:17.984Z,98.40
2019-05-07T05:04:30.193Z,98.70
2019-05-07T05:09:28.695Z,98.60
2019-05-07T05:14:33.959Z,98.70
2019-05-07T05:19:38.596Z,98.70
2019-05-07T05:24:45.837Z,98.30
2019-05-07T05:29:52.023Z,98.60
2019-05-07T05:34:58.025Z,98.70
2019-05-07T05:40:08.592Z,98.40
2019-05-07T05:45:29.153Z,98.70
2019-05-07T05:50:39.514Z,98.50
2019-05-07T05:55:44.232Z,98.90
2019-05-07T06:01:08.035Z,98.80
2019-05-07T06:06:32.743Z,98.20
2019-05-07T06:12:14.372Z,98.90
2019-05-07T06:17:36.559Z,98.70
2019-05-07T06:22:48.939Z,97.20
2019-05-07T06:27:53.288Z,96.80
2019-05-07T06:32:57.685Z,97.30
2019-05-07T06:38:03.873Z,98.00
2019-05-07T06:43:19.307Z,96.80
2019-05-07T06:48:37.639Z,97.10
2019-05-07T06:53:33.329Z,95.00
2019-05-07T06:59:02.382Z,94.70
2019-05-07T07:04:42.333Z,92.40
2019-05-07T07:10:24.207Z,93.20
2019-05-07T07:15:28.943Z,93.00
2019-05-07T07:20:34.449Z,93.20
2019-05-07T07:25:38.787Z,90.50
2019-05-07T07:31:08.378Z,91.20
2019-05-07T07:36:12.722Z,90.90
2019-05-07T07:41:29.789Z,87.90
2019-05-07T07:46:34.141Z,88.60
2019-05-07T07:51:42.041Z,86.40
2019-05-07T07:57:08.731Z,90.90
2019-05-07T08:02:35.678Z,87.70
2019-05-07T08:07:42.444Z,85.70
2019-05-07T08:12:46.102Z,86.00
2019-05-07T08:17:52.165Z,84.60
2019-05-07T08:22:56.651Z,78.90
2019-05-07T08:28:02.852Z,85.50
2019-05-07T08:33:14.779Z,78.40
2019-05-07T08:38:21.905Z,75.40
2019-05-07T08:43:27.007Z,71.80
2019-05-07T08:48:39.000Z,74.90
2019-05-07T08:53:43.346Z,67.40
2019-05-07T08:58:47.744Z,71.10
2019-05-07T09:03:52.097Z,61.40
2019-05-07T09:08:56.477Z,59.50
2019-05-07T09:14:01.826Z,58.00
2019-05-07T09:19:07.036Z,59.70
2019-05-07T09:24:12.169Z,51.00
2019-05-07T09:29:38.806Z,51.90
2019-05-07T09:34:45.410Z,51.70
2019-05-07T09:39:51.392Z,50.40
2019-05-07T09:44:55.848Z,52.50
2019-05-07T09:50:04.824Z,49.90
2019-05-07T09:55:14.143Z,51.40
2019-05-07T10:00:14.661Z,48.40
2019-05-07T10:05:19.467Z,49.00
2019-05-07T10:10:23.983Z,49.20
2019-05-07T10:15:28.665Z,48.80
2019-05-07T10:20:33.295Z,48.40
2019-05-07T10:25:40.774Z,47.60
2019-05-07T10:30:45.202Z,49.60
2019-05-07T10:35:52.694Z,49.00
2019-05-07T10:40:56.913Z,48.80
2019-05-07T10:46:20.154Z,47.00
2019-05-07T10:51:25.173Z,48.20
2019-05-07T10:56:29.531Z,45.10
2019-05-07T11:01:42.417Z,47.30
2019-05-07T11:06:46.323Z,51.50
2019-05-07T11:11:51.865Z,48.40
2019-05-07T11:17:11.874Z,44.10
2019-05-07T11:22:16.503Z,43.70
2019-05-07T11:27:22.527Z,42.70
2019-05-07T11:32:27.050Z,43.70
2019-05-07T11:37:31.437Z,42.10
2019-05-07T11:43:02.323Z,41.90
2019-05-07T11:48:06.822Z,44.20
2019-05-07T11:53:12.078Z,46.30
2019-05-07T11:58:16.506Z,43.10
2019-05-07T12:03:22.101Z,41.40
2019-05-07T12:08:40.995Z,43.40
2019-05-07T12:13:33.969Z,43.00
2019-05-07T12:18:38.347Z,42.60
2019-05-07T12:23:42.668Z,43.80
2019-05-07T12:28:47.033Z,43.10
2019-05-07T12:33:59.641Z,43.00
2019-05-07T12:39:06.624Z,43.90
2019-05-07T12:44:12.896Z,44.80
2019-05-07T12:49:18.621Z,45.60
2019-05-07T12:54:29.867Z,44.90
2019-05-07T12:59:34.229Z,44.10
2019-05-07T13:04:38.565Z,38.30
2019-05-07T13:09:42.939Z,37.30
2019-05-07T13:14:47.349Z,37.70
2019-05-07T13:19:52.415Z,38.80
2019-05-07T13:24:58.523Z,39.40
2019-05-07T13:30:02.924Z,38.70
2019-05-07T13:35:08.270Z,38.10
2019-05-07T13:40:34.762Z,41.90
2019-05-07T13:45:53.158Z,39.60
2019-05-07T13:50:57.747Z,39.40
2019-05-07T13:56:02.404Z,37.70
2019-05-07T14:01:17.968Z,40.10
2019-05-07T14:06:43.023Z,37.70
2019-05-07T14:11:47.243Z,38.00
2019-05-07T14:16:53.036Z,41.10
2019-05-07T14:21:57.796Z,41.60
2019-05-07T14:27:02.212Z,40.40
2019-05-07T14:32:37.794Z,41.10
2019-05-07T14:37:48.896Z,40.90
2019-05-07T14:43:07.430Z,40.90
2019-05-07T14:48:12.286Z,42.30
2019-05-07T14:53:16.772Z,42.30
2019-05-07T14:58:21.118Z,47.10
2019-05-07T15:03:25.495Z,50.60
2019-05-07T15:08:29.843Z,52.30
2019-05-07T15:13:34.329Z,53.20
2019-05-07T15:18:49.467Z,50.60
2019-05-07T15:23:55.501Z,50.80
2019-05-07T15:29:12.700Z,52.80
2019-05-07T15:34:17.073Z,53.40
2019-05-07T15:39:22.260Z,51.70
2019-05-07T15:44:27.279Z,50.20
2019-05-07T15:49:32.310Z,49.30
2019-05-07T15:54:36.849Z,48.90
2019-05-07T15:59:41.785Z,48.20
2019-05-07T16:04:46.303Z,47.70
2019-05-07T16:09:52.449Z,47.60
2019-05-07T16:14:57.979Z,48.30
2019-05-07T16:20:03.144Z,47.10
2019-05-07T16:25:07.910Z,47.70
2019-05-07T16:30:14.349Z,46.80
2019-05-07T16:35:19.376Z,47.60
2019-05-07T16:40:23.787Z,48.40
2019-05-07T16:45:28.160Z,47.00
2019-05-07T16:50:32.746Z,45.50
2019-05-07T16:55:37.349Z,45.10
2019-05-07T17:00:47.784Z,44.00
2019-05-07T17:05:52.465Z,44.50
2019-05-07T17:10:56.863Z,44.80
2019-05-07T17:16:03.379Z,44.40
2019-05-07T17:21:08.020Z,45.10
2019-05-07T17:26:12.466Z,45.10
2019-05-07T17:31:16.868Z,43.80
2019-05-07T17:36:22.474Z,44.60
2019-05-07T17:41:28.147Z,44.50
2019-05-07T17:46:33.119Z,45.20
2019-05-07T17:51:45.709Z,45.50
2019-05-07T17:56:50.172Z,47.20
2019-05-07T18:02:29.791Z,47.30
2019-05-07T18:07:36.580Z,47.10
2019-05-07T18:12:42.454Z,47.40
2019-05-07T18:17:51.737Z,49.30
2019-05-07T18:22:56.186Z,51.20
2019-05-07T18:28:01.845Z,52.50
2019-05-07T18:33:30.360Z,53.20
2019-05-07T18:38:34.717Z,53.30
2019-05-07T18:43:39.134Z,54.40
2019-05-07T18:48:43.495Z,55.70
2019-05-07T18:53:47.879Z,56.00
2019-05-07T18:58:52.328Z,56.70
2019-05-07T19:03:57.724Z,57.10
2019-05-07T19:09:03.870Z,57.30
2019-05-07T19:14:08.393Z,57.70
2019-05-07T19:19:13.085Z,58.40
2019-05-07T19:24:17.446Z,59.20
2019-05-07T19:29:23.358Z,61.00
2019-05-07T19:34:28.068Z,61.30
2019-05-07T19:39:33.297Z,61.70
2019-05-07T19:44:37.921Z,61.80
2019-05-07T19:49:42.347Z,62.70
2019-05-07T19:54:57.863Z,64.40
2019-05-07T19:59:54.788Z,63.80
2019-05-07T20:04:59.349Z,66.10
2019-05-07T20:10:03.920Z,68.30
2019-05-07T20:15:08.563Z,69.20
2019-05-07T20:20:13.365Z,69.90
2019-05-07T20:25:19.291Z,71.40
2019-05-07T20:30:24.603Z,73.10
2019-05-07T20:35:29.078Z,73.50
2019-05-07T20:40:33.495Z,73.20
2019-05-07T20:45:37.900Z,73.90
2019-05-07T20:50:42.483Z,74.40
2019-05-07T20:56:02.244Z,75.90
2019-05-07T21:01:06.727Z,76.40
2019-05-07T21:06:11.193Z,77.50
2019-05-07T21:11:15.919Z,78.10
2019-05-07T21:16:22.115Z,78.80
2019-05-07T21:21:26.479Z,79.60
2019-05-07T21:26:32.666Z,79.90
2019-05-07T21:31:37.101Z,80.00
2019-05-07T21:36:43.299Z,80.70
2019-05-07T21:41:47.849Z,79.90
2019-05-07T21:46:52.294Z,79.60
2019-05-07T21:51:56.661Z,79.80
2019-05-07T21:57:22.667Z,81.40
2019-05-07T22:02:27.281Z,81.60
2019-05-07T22:07:31.708Z,81.70
2019-05-07T22:12:36.286Z,82.50
2019-05-07T22:17:44.134Z,82.60
2019-05-07T22:22:46.808Z,83.70
2019-05-07T22:27:52.979Z,84.00
2019-05-07T22:33:02.770Z,83.70
2019-05-07T22:38:07.247Z,82.60
2019-05-07T22:43:12.998Z,84.00
2019-05-07T22:48:17.422Z,85.80
2019-05-07T22:53:22.101Z,86.20
2019-05-07T22:58:39.216Z,86.70
2019-05-07T23:03:43.601Z,86.50
2019-05-07T23:08:47.941Z,88.00
2019-05-07T23:13:54.854Z,87.70
2019-05-07T23:18:58.297Z,87.70
2019-05-07T23:24:02.622Z,88.60
2019-05-07T23:29:07.078Z,87.80
2019-05-07T23:34:12.557Z,87.30
2019-05-07T23:39:18.831Z,87.90
2019-05-07T23:44:23.175Z,89.10
2019-05-07T23:49:27.535Z,89.50
2019-05-07T23:54:32.061Z,89.00
2019-05-07T23:59:36.587Z,88.80
